This is the latest recevied weather packets stored in our database for station/object G3VHU. If no packets are shown the sender has not sent any weather packets the latest 1 day(s).
| Time | Temp. | Humidity | Pressure | Rain* | Wind** | Luminosity | Snow |
|---|---|---|---|---|---|---|---|
| 1836274558 | 13.33° C | 90% | 1010.2 hPa | 0 mm | 0.45 m/s, 320° | - | - |
| 1836274412 | 13.89° C | 90% | 1010 hPa | 0 mm | 0.89 m/s, 257° | - | - |
| 1836274259 | 13.89° C | 89% | 1010.1 hPa | 0 mm | 0.45 m/s, 336° | - | - |
| 1836274109 | 13.89° C | 90% | 1010 hPa | 0 mm | 0.45 m/s, 328° | - | - |
| 1836273956 | 13.89° C | 89% | 1010.4 hPa | 0 mm | 0.45 m/s, 290° | - | - |
| 1778044983 | 7.22° C | 78% | 1015.6 hPa | 0 mm | 2.68 m/s, 4° | - | - |
| 1778044683 | 7.22° C | 78% | 1015.5 hPa | 0 mm | 2.68 m/s, 60° | - | - |
| 1778044382 | 7.22° C | 78% | 1015.6 hPa | 0 mm | 2.68 m/s, 18° | - | - |
| 1778044083 | 7.22° C | 77% | 1015.5 hPa | 0 mm | 2.68 m/s, 13° | - | - |
| 1778043783 | 7.22° C | 77% | 1015.6 hPa | 0 mm | 2.68 m/s, 14° | - | - |
| 1778043481 | 7.22° C | 77% | 1015.5 hPa | 0 mm | 2.68 m/s, 41° | - | - |
| 1778043176 | 7.22° C | 77% | 1015.5 hPa | 0 mm | 2.24 m/s, 326° | - | - |
| 1778042869 | 7.22° C | 77% | 1015.6 hPa | 0 mm | 2.24 m/s, 238° | - | - |
| 1778042567 | 7.22° C | 76% | 1015.6 hPa | 0 mm | 2.68 m/s, 97° | - | - |
| 1778042265 | 7.22° C | 76% | 1015.5 hPa | 0 mm | 2.68 m/s, 27° | - | - |
| 1778041965 | 7.22° C | 76% | 1015.5 hPa | 0 mm | 1.79 m/s, 30° | - | - |
| 1778041664 | 7.22° C | 77% | 1015.5 hPa | 0 mm | 1.34 m/s, 34° | - | - |
| 1778041362 | 7.22° C | 77% | 1015.5 hPa | 0 mm | 1.79 m/s, 32° | - | - |
| 1778041062 | 7.22° C | 77% | 1015.5 hPa | 0 mm | 1.79 m/s, 84° | - | - |
| 1778040763 | 7.22° C | 77% | 1015.5 hPa | 0 mm | 1.79 m/s, 34° | - | - |
| 1778040462 | 7.22° C | 77% | 1015.5 hPa | 0 mm | 2.24 m/s, 53° | - | - |
| 1778040162 | 7.22° C | 77% | 1015.5 hPa | 0 mm | 2.24 m/s, 37° | - | - |
| 1778039863 | 7.22° C | 78% | 1015.4 hPa | 0 mm | 1.79 m/s, 12° | - | - |
| 1778039562 | 7.22° C | 79% | 1015.5 hPa | 0 mm | 1.79 m/s, 7° | - | - |
| 1778039262 | 7.22° C | 78% | 1015.5 hPa | 0 mm | 1.79 m/s, 296° | - | - |
* Rain latest hour (hover to see other rain measurements)
** Current wind speed in m/s (hover to see current wind gust speed)